createdAt,value
2019-04-16T00:02:08.146Z,15.77
2019-04-16T00:05:03.674Z,14.97
2019-04-16T00:07:56.227Z,15.97
2019-04-16T00:10:44.037Z,16.93
2019-04-16T00:13:23.197Z,14.03
2019-04-16T00:15:55.028Z,17.33
2019-04-16T00:18:25.070Z,16.37
2019-04-16T00:21:19.887Z,14.83
2019-04-16T00:24:19.197Z,17.37
2019-04-16T00:26:58.000Z,18.77
2019-04-16T00:29:25.518Z,15.37
2019-04-16T00:32:00.047Z,19.47
2019-04-16T00:34:30.005Z,17.77
2019-04-16T00:36:59.918Z,18.20
2019-04-16T00:39:29.893Z,17.53
2019-04-16T00:41:59.805Z,16.77
2019-04-16T00:44:30.150Z,17.20
2019-04-16T00:47:00.132Z,20.30
2019-04-16T00:49:30.007Z,18.07
2019-04-16T00:51:59.990Z,18.27
2019-04-16T00:54:29.971Z,18.73
2019-04-16T00:57:00.170Z,18.23
2019-04-16T00:59:30.242Z,18.37
2019-04-16T01:02:00.345Z,17.63
2019-04-16T01:04:30.394Z,18.43
2019-04-16T01:07:00.521Z,18.63
2019-04-16T01:09:30.661Z,15.40
2019-04-16T01:12:00.665Z,20.53
2019-04-16T01:14:30.711Z,14.27
2019-04-16T01:17:03.853Z,18.33
2019-04-16T01:19:32.330Z,17.60
2019-04-16T01:22:02.357Z,19.53
2019-04-16T01:24:33.433Z,16.33
2019-04-16T01:27:03.499Z,16.87
2019-04-16T01:29:34.539Z,19.13
2019-04-16T01:32:30.691Z,19.73
2019-04-16T01:35:19.855Z,17.20
2019-04-16T01:38:08.819Z,19.50
2019-04-16T01:40:55.120Z,16.03
2019-04-16T01:43:25.872Z,17.23
2019-04-16T01:46:00.838Z,18.27
2019-04-16T01:48:27.992Z,17.13
2019-04-16T01:50:58.523Z,16.17
2019-04-16T01:53:28.843Z,14.40
2019-04-16T01:55:58.897Z,18.93
2019-04-16T01:58:33.504Z,18.93
2019-04-16T02:01:00.780Z,16.47
2019-04-16T02:03:30.772Z,16.17
2019-04-16T02:06:01.227Z,18.80
2019-04-16T02:08:31.826Z,19.23
2019-04-16T02:11:01.934Z,20.23
2019-04-16T02:13:31.950Z,19.80
2019-04-16T02:16:01.997Z,18.80
2019-04-16T02:18:31.967Z,19.90
2019-04-16T02:21:03.015Z,20.97
2019-04-16T02:23:33.137Z,17.90
2019-04-16T02:26:03.123Z,18.37
2019-04-16T02:28:33.086Z,17.50
2019-04-16T02:31:03.109Z,15.73
2019-04-16T02:33:33.081Z,21.03
2019-04-16T02:36:03.093Z,17.73
2019-04-16T02:38:33.085Z,18.47
2019-04-16T02:41:02.961Z,16.97
2019-04-16T02:43:39.583Z,17.40
2019-04-16T02:46:04.937Z,19.83
2019-04-16T02:48:35.018Z,16.00
2019-04-16T02:51:13.812Z,18.90
2019-04-16T02:54:18.398Z,17.67
2019-04-16T02:57:13.404Z,17.10
2019-04-16T02:59:47.273Z,16.80
2019-04-16T03:02:38.085Z,17.83
2019-04-16T03:05:14.107Z,17.20
2019-04-16T03:07:44.201Z,17.40
2019-04-16T03:10:14.496Z,17.37
2019-04-16T03:12:44.399Z,17.90
2019-04-16T03:15:17.692Z,16.60
2019-04-16T03:17:47.577Z,15.77
2019-04-16T03:20:20.817Z,18.37
2019-04-16T03:22:49.550Z,15.73
2019-04-16T03:25:19.536Z,15.10
2019-04-16T03:27:51.473Z,22.70
2019-04-16T03:30:21.113Z,17.43
2019-04-16T03:32:51.816Z,16.43
2019-04-16T03:35:25.538Z,18.13
2019-04-16T03:37:53.548Z,16.80
2019-04-16T03:40:25.425Z,20.30
2019-04-16T03:42:58.892Z,15.20
2019-04-16T03:45:27.340Z,16.63
2019-04-16T03:47:57.333Z,15.00
2019-04-16T03:50:31.113Z,15.93
2019-04-16T03:52:59.308Z,16.87
2019-04-16T03:55:29.265Z,19.67
2019-04-16T03:57:59.250Z,18.43
2019-04-16T04:00:30.182Z,20.67
2019-04-16T04:02:59.999Z,17.87
2019-04-16T04:05:29.973Z,20.60
2019-04-16T04:08:00.015Z,21.70
2019-04-16T04:10:34.214Z,16.63
2019-04-16T04:13:04.888Z,19.13
2019-04-16T04:15:34.340Z,20.70
2019-04-16T04:18:04.318Z,25.47
2019-04-16T04:20:35.507Z,18.67
2019-04-16T04:23:05.850Z,16.67
2019-04-16T04:25:37.004Z,18.47
2019-04-16T04:28:07.166Z,16.13
2019-04-16T04:30:37.054Z,16.20
2019-04-16T04:33:08.647Z,19.60
2019-04-16T04:35:38.721Z,16.90
2019-04-16T04:38:08.682Z,16.20
2019-04-16T04:40:44.823Z,20.73
2019-04-16T04:43:10.859Z,19.20
2019-04-16T04:45:41.522Z,18.90
2019-04-16T04:48:12.234Z,21.80
2019-04-16T04:50:42.518Z,22.67
2019-04-16T04:53:15.632Z,22.83
2019-04-16T04:55:44.819Z,17.87
2019-04-16T04:58:14.951Z,17.13
2019-04-16T05:00:45.076Z,19.83
2019-04-16T05:03:25.395Z,21.33
2019-04-16T05:05:57.152Z,20.00
2019-04-16T05:08:28.653Z,23.03
2019-04-16T05:11:02.650Z,21.73
2019-04-16T05:13:31.419Z,18.67
2019-04-16T05:16:01.962Z,20.23
2019-04-16T05:18:32.741Z,19.13
2019-04-16T05:21:02.690Z,18.63
2019-04-16T05:23:32.670Z,17.30
2019-04-16T05:26:04.718Z,18.30
2019-04-16T05:28:35.478Z,21.20
2019-04-16T05:31:05.472Z,17.87
2019-04-16T05:33:37.347Z,18.40
2019-04-16T05:36:07.443Z,22.37
2019-04-16T05:38:37.433Z,16.90
2019-04-16T05:41:13.551Z,21.40
2019-04-16T05:43:39.105Z,18.47
2019-04-16T05:46:09.865Z,19.33
2019-04-16T05:48:40.174Z,17.57
2019-04-16T05:51:10.154Z,19.33
2019-04-16T05:53:41.813Z,14.40
2019-04-16T05:56:29.623Z,17.97
2019-04-16T05:58:59.632Z,16.70
2019-04-16T06:01:39.134Z,17.40
2019-04-16T06:04:09.123Z,15.63
2019-04-16T06:06:39.338Z,19.00
2019-04-16T06:09:12.184Z,18.70
2019-04-16T06:11:42.091Z,16.00
2019-04-16T06:14:26.131Z,15.87
2019-04-16T06:17:31.778Z,15.50
2019-04-16T06:20:24.450Z,15.47
2019-04-16T06:23:02.667Z,14.63
2019-04-16T06:25:41.310Z,17.03
2019-04-16T06:28:33.099Z,15.63
2019-04-16T06:31:26.468Z,14.40
2019-04-16T06:34:09.813Z,16.00
2019-04-16T06:37:00.611Z,13.10
2019-04-16T06:39:48.495Z,15.37
2019-04-16T06:42:38.658Z,15.30
2019-04-16T06:45:19.687Z,18.83
2019-04-16T06:47:56.897Z,18.67
2019-04-16T06:50:44.845Z,17.60
2019-04-16T06:53:53.957Z,12.20
2019-04-16T06:56:41.655Z,18.33
2019-04-16T06:59:36.602Z,14.17
2019-04-16T07:02:25.514Z,16.00
2019-04-16T07:05:04.694Z,17.23
2019-04-16T07:07:56.949Z,14.83
2019-04-16T07:10:43.717Z,16.87
2019-04-16T07:13:02.597Z,17.37
2019-04-16T07:15:32.602Z,15.33
2019-04-16T07:18:05.578Z,15.10
2019-04-16T07:20:34.803Z,16.20
2019-04-16T07:23:04.906Z,15.07
2019-04-16T07:25:39.766Z,16.03
2019-04-16T07:28:12.529Z,13.80
2019-04-16T07:30:47.727Z,12.90
2019-04-16T07:33:24.220Z,16.90
2019-04-16T07:36:08.862Z,18.67
2019-04-16T07:38:56.389Z,13.23
2019-04-16T07:41:31.620Z,18.00
2019-04-16T07:44:10.789Z,15.60
2019-04-16T07:46:56.627Z,15.30
2019-04-16T07:49:42.113Z,19.70
2019-04-16T07:52:28.932Z,15.97
2019-04-16T07:55:27.529Z,18.90
2019-04-16T07:57:57.883Z,17.20
2019-04-16T08:00:27.947Z,15.37
2019-04-16T08:02:57.960Z,15.30
2019-04-16T08:05:28.283Z,16.30
2019-04-16T08:07:58.502Z,16.83
2019-04-16T08:10:28.485Z,15.17
2019-04-16T08:13:06.896Z,18.57
2019-04-16T08:15:37.158Z,14.87
2019-04-16T08:18:07.226Z,18.27
2019-04-16T08:20:37.606Z,13.20
2019-04-16T08:23:25.556Z,15.03
2019-04-16T08:26:03.863Z,16.87
2019-04-16T08:28:28.159Z,16.37
2019-04-16T08:30:58.408Z,17.60
2019-04-16T08:33:29.294Z,17.73
2019-04-16T08:35:59.544Z,15.77
2019-04-16T08:38:34.157Z,16.07
2019-04-16T08:41:01.682Z,17.25
2019-04-16T08:43:31.625Z,17.87
2019-04-16T08:46:01.634Z,18.85
2019-04-16T08:48:31.634Z,15.30
2019-04-16T08:51:04.649Z,16.73
2019-04-16T08:53:35.541Z,14.28
2019-04-16T08:56:05.748Z,14.25
2019-04-16T08:58:38.307Z,17.00
2019-04-16T09:01:08.743Z,16.25
2019-04-16T09:03:38.701Z,16.65
2019-04-16T09:06:13.108Z,15.93
2019-04-16T09:09:18.373Z,16.35
2019-04-16T09:11:51.370Z,14.65
2019-04-16T09:14:25.762Z,15.98
2019-04-16T09:17:00.811Z,17.37
2019-04-16T09:19:30.805Z,15.08
2019-04-16T09:22:00.937Z,14.35
2019-04-16T09:24:46.863Z,16.87
2019-04-16T09:27:34.272Z,15.80
2019-04-16T09:30:28.306Z,16.00
2019-04-16T09:33:08.282Z,17.77
2019-04-16T09:35:59.080Z,17.90
2019-04-16T09:38:37.857Z,17.98
2019-04-16T09:41:22.118Z,18.40
2019-04-16T09:43:57.246Z,16.45
2019-04-16T09:46:49.590Z,16.60
2019-04-16T09:48:58.709Z,16.23
2019-04-16T09:51:28.970Z,16.90
2019-04-16T09:53:59.323Z,17.27
2019-04-16T09:56:30.172Z,18.62
2019-04-16T09:59:11.041Z,16.60
2019-04-16T10:01:49.029Z,18.25
2019-04-16T10:04:20.029Z,18.92
2019-04-16T10:06:50.537Z,19.20
2019-04-16T10:09:22.549Z,17.98
2019-04-16T10:11:52.723Z,19.15
2019-04-16T10:14:22.802Z,17.27
2019-04-16T10:16:52.802Z,21.20
2019-04-16T10:19:22.881Z,16.27
2019-04-16T10:21:54.255Z,17.95
2019-04-16T10:24:46.888Z,21.00
2019-04-16T10:27:41.955Z,16.37
2019-04-16T10:30:17.757Z,17.27
2019-04-16T10:32:47.936Z,21.55
2019-04-16T10:35:18.166Z,19.48
2019-04-16T10:37:48.222Z,19.65
2019-04-16T10:40:33.142Z,20.50
2019-04-16T10:43:21.450Z,14.95
2019-04-16T10:46:09.875Z,16.40
2019-04-16T10:48:53.499Z,17.12
2019-04-16T10:51:48.948Z,18.42
2019-04-16T10:54:37.155Z,18.80
2019-04-16T10:57:45.666Z,21.70
2019-04-16T11:00:27.203Z,17.25
2019-04-16T11:03:16.289Z,22.25
2019-04-16T11:05:59.211Z,17.87
2019-04-16T11:08:29.328Z,19.32
2019-04-16T11:10:59.554Z,20.68
2019-04-16T11:13:59.851Z,21.20
2019-04-16T11:16:21.408Z,17.65
2019-04-16T11:18:54.792Z,19.37
2019-04-16T11:21:23.079Z,17.40
2019-04-16T11:23:53.027Z,18.55
2019-04-16T11:26:23.449Z,19.67
2019-04-16T11:28:53.475Z,19.12
2019-04-16T11:31:24.120Z,16.70
2019-04-16T11:33:54.137Z,18.50
2019-04-16T11:36:24.214Z,18.48
2019-04-16T11:38:54.628Z,19.10
2019-04-16T11:41:25.029Z,19.37
2019-04-16T11:43:55.019Z,17.77
2019-04-16T11:46:25.034Z,20.68
2019-04-16T11:48:55.164Z,18.80
2019-04-16T11:51:25.241Z,18.35
2019-04-16T11:53:55.315Z,20.12
2019-04-16T11:56:25.344Z,23.45
2019-04-16T11:58:57.395Z,22.85
2019-04-16T12:01:58.640Z,20.90
2019-04-16T12:04:42.355Z,19.85
2019-04-16T12:07:34.436Z,20.17
2019-04-16T12:10:22.235Z,22.45
2019-04-16T12:13:13.987Z,22.98
2019-04-16T12:15:56.822Z,22.07
2019-04-16T12:18:45.957Z,18.00
2019-04-16T12:21:29.420Z,20.00
2019-04-16T12:24:27.175Z,20.32
2019-04-16T12:27:14.865Z,19.52
2019-04-16T12:30:02.807Z,20.30
2019-04-16T12:32:47.189Z,19.57
2019-04-16T12:35:34.431Z,22.87
2019-04-16T12:38:16.178Z,22.37
2019-04-16T12:41:00.137Z,22.90
2019-04-16T12:43:36.645Z,20.30
2019-04-16T12:46:19.877Z,21.62
2019-04-16T12:49:12.204Z,23.73
2019-04-16T12:51:48.732Z,19.50
2019-04-16T12:54:29.963Z,19.32
2019-04-16T12:57:25.400Z,25.10
2019-04-16T13:00:17.222Z,21.12
2019-04-16T13:03:05.334Z,20.17
2019-04-16T13:05:44.423Z,21.33
2019-04-16T13:08:34.545Z,23.50
2019-04-16T13:11:15.916Z,20.17
2019-04-16T13:14:11.065Z,22.25
2019-04-16T13:17:06.071Z,20.35
2019-04-16T13:19:56.150Z,22.22
2019-04-16T13:22:30.152Z,19.50
2019-04-16T13:25:31.483Z,21.70
2019-04-16T13:28:01.480Z,23.15
2019-04-16T13:30:31.806Z,23.52
2019-04-16T13:33:02.374Z,22.77
2019-04-16T13:35:32.345Z,20.75
2019-04-16T13:38:02.341Z,20.48
2019-04-16T13:40:32.303Z,21.05
2019-04-16T13:43:05.574Z,22.27
2019-04-16T13:45:38.936Z,24.80
2019-04-16T13:48:27.273Z,24.77
2019-04-16T13:50:58.307Z,22.73
2019-04-16T13:53:42.971Z,23.07
2019-04-16T13:56:20.043Z,23.32
2019-04-16T13:58:58.986Z,23.32
2019-04-16T14:01:30.315Z,22.13
2019-04-16T14:04:01.491Z,24.72
2019-04-16T14:06:32.993Z,21.62
2019-04-16T14:09:03.558Z,24.27
2019-04-16T14:11:35.326Z,24.12
2019-04-16T14:14:07.642Z,26.17
2019-04-16T14:16:37.077Z,23.35
2019-04-16T14:19:07.314Z,23.10
2019-04-16T14:21:37.413Z,20.48
2019-04-16T14:24:07.356Z,24.07
2019-04-16T14:26:37.477Z,24.63
2019-04-16T14:29:07.895Z,25.25
2019-04-16T14:31:39.167Z,23.65
2019-04-16T14:34:29.859Z,25.12
2019-04-16T14:37:00.331Z,25.75
2019-04-16T14:39:36.787Z,23.80
2019-04-16T14:42:07.356Z,22.20
2019-04-16T14:44:41.831Z,22.10
2019-04-16T14:47:12.172Z,21.10
2019-04-16T14:49:43.270Z,25.00
2019-04-16T14:52:13.653Z,22.22
2019-04-16T14:54:49.179Z,25.55
2019-04-16T14:57:19.262Z,21.95
2019-04-16T15:00:18.429Z,22.95
2019-04-16T15:03:11.073Z,26.23
2019-04-16T15:05:53.353Z,21.12
2019-04-16T15:08:38.678Z,26.20
2019-04-16T15:11:27.649Z,20.72
2019-04-16T15:14:04.733Z,20.20
2019-04-16T15:16:41.054Z,21.97
2019-04-16T15:19:26.457Z,21.25
2019-04-16T15:22:17.160Z,22.50
2019-04-16T15:25:04.891Z,23.15
2019-04-16T15:27:44.563Z,22.87
2019-04-16T15:30:31.479Z,22.13
2019-04-16T15:33:19.675Z,23.77
2019-04-16T15:36:07.677Z,21.15
2019-04-16T15:39:04.053Z,20.10
2019-04-16T15:41:54.198Z,19.82
2019-04-16T15:44:49.071Z,19.30
2019-04-16T15:47:43.010Z,21.15
2019-04-16T15:50:35.899Z,21.07
2019-04-16T15:53:23.536Z,20.97
2019-04-16T15:56:02.736Z,20.72
2019-04-16T15:58:39.090Z,22.67
2019-04-16T16:01:27.552Z,18.82
2019-04-16T16:04:13.180Z,23.73
2019-04-16T16:06:48.791Z,19.92
2019-04-16T16:09:23.331Z,21.45
2019-04-16T16:12:03.312Z,21.48
2019-04-16T16:14:38.447Z,21.23
2019-04-16T16:17:06.432Z,21.62
2019-04-16T16:19:37.370Z,22.45
2019-04-16T16:22:10.832Z,22.82
2019-04-16T16:24:42.001Z,21.70
2019-04-16T16:27:11.305Z,21.33
2019-04-16T16:29:41.290Z,20.90
2019-04-16T16:32:11.279Z,18.37
2019-04-16T16:34:41.273Z,19.37
2019-04-16T16:37:11.267Z,20.77
2019-04-16T16:39:41.427Z,21.25
2019-04-16T16:42:12.415Z,20.02
2019-04-16T16:44:42.378Z,20.88
2019-04-16T16:47:34.640Z,24.18
2019-04-16T16:50:07.279Z,22.52
2019-04-16T16:53:02.981Z,21.42
2019-04-16T16:55:42.100Z,23.12
2019-04-16T16:58:29.301Z,20.25
2019-04-16T17:01:17.558Z,23.02
2019-04-16T17:04:10.653Z,22.45
2019-04-16T17:06:40.711Z,22.05
2019-04-16T17:09:20.923Z,22.17
2019-04-16T17:11:51.591Z,22.93
2019-04-16T17:14:22.091Z,21.50
2019-04-16T17:16:52.151Z,24.72
2019-04-16T17:19:22.482Z,24.07
2019-04-16T17:21:52.482Z,25.60
2019-04-16T17:24:22.692Z,20.68
2019-04-16T17:26:52.713Z,22.42
2019-04-16T17:29:22.782Z,21.27
2019-04-16T17:31:53.712Z,23.22
2019-04-16T17:34:24.090Z,22.02
2019-04-16T17:36:54.454Z,26.15
2019-04-16T17:39:50.158Z,25.10
2019-04-16T17:42:21.732Z,21.27
2019-04-16T17:45:14.370Z,24.87
2019-04-16T17:48:09.961Z,20.95
2019-04-16T17:50:51.689Z,22.70
2019-04-16T17:53:43.638Z,21.97
2019-04-16T17:56:35.482Z,24.35
2019-04-16T17:59:08.714Z,24.45
2019-04-16T18:01:58.195Z,25.35
2019-04-16T18:04:35.680Z,22.45
2019-04-16T18:07:23.242Z,24.45
2019-04-16T18:10:10.758Z,24.20
2019-04-16T18:12:58.788Z,22.85
2019-04-16T18:15:53.618Z,25.05
2019-04-16T18:18:45.416Z,26.57
2019-04-16T18:21:33.194Z,27.30
2019-04-16T18:24:28.062Z,26.97
2019-04-16T18:27:13.234Z,23.22
2019-04-16T18:29:48.224Z,26.37
2019-04-16T18:32:36.018Z,27.13
2019-04-16T18:35:22.826Z,25.12
2019-04-16T18:38:01.895Z,26.93
2019-04-16T18:40:49.564Z,30.43
2019-04-16T18:43:35.604Z,25.37
2019-04-16T18:46:23.218Z,21.77
2019-04-16T18:48:57.387Z,30.27
2019-04-16T18:51:32.913Z,24.25
2019-04-16T18:53:59.014Z,27.80
2019-04-16T18:56:29.078Z,25.50
2019-04-16T18:58:59.064Z,26.52
2019-04-16T19:01:29.698Z,24.67
2019-04-16T19:04:01.100Z,26.93
2019-04-16T19:06:31.469Z,24.05
2019-04-16T19:09:01.452Z,26.37
2019-04-16T19:11:33.382Z,27.07
2019-04-16T19:14:03.307Z,27.95
2019-04-16T19:16:34.262Z,24.70
2019-04-16T19:19:04.515Z,26.10
2019-04-16T19:21:34.553Z,28.95
2019-04-16T19:24:04.780Z,25.08
2019-04-16T19:26:35.061Z,27.45
2019-04-16T19:29:05.975Z,28.50
2019-04-16T19:31:36.358Z,30.43
2019-04-16T19:34:10.264Z,26.42
2019-04-16T19:36:38.410Z,31.50
2019-04-16T19:39:13.516Z,28.33
2019-04-16T19:41:41.371Z,26.60
2019-04-16T19:44:11.800Z,28.00
2019-04-16T19:46:42.063Z,29.92
2019-04-16T19:49:13.659Z,29.63
2019-04-16T19:51:44.670Z,30.33
2019-04-16T19:54:14.773Z,29.37
2019-04-16T19:56:44.829Z,30.60
2019-04-16T19:59:15.097Z,31.65
2019-04-16T20:01:45.218Z,28.67
2019-04-16T20:04:15.444Z,39.20
2019-04-16T20:06:45.489Z,31.02
2019-04-16T20:09:15.738Z,27.13
2019-04-16T20:11:46.036Z,26.52
2019-04-16T20:14:15.941Z,32.03
2019-04-16T20:16:46.446Z,30.52
2019-04-16T20:19:16.450Z,29.60
2019-04-16T20:21:46.439Z,29.00
2019-04-16T20:24:16.689Z,30.90
2019-04-16T20:26:46.720Z,32.13
2019-04-16T20:29:16.629Z,30.80
2019-04-16T20:31:46.562Z,27.93
2019-04-16T20:34:18.178Z,29.23
2019-04-16T20:36:52.179Z,29.30
2019-04-16T20:39:20.963Z,28.90
2019-04-16T20:41:53.077Z,28.90
2019-04-16T20:44:22.601Z,31.80
2019-04-16T20:46:52.584Z,29.00
2019-04-16T20:49:22.568Z,30.50
2019-04-16T20:51:52.754Z,33.03
2019-04-16T20:54:22.996Z,29.60
2019-04-16T20:56:53.996Z,28.97
2019-04-16T20:59:24.346Z,27.97
2019-04-16T21:01:54.380Z,27.40
2019-04-16T21:04:24.384Z,29.43
2019-04-16T21:06:54.393Z,28.87
2019-04-16T21:09:26.764Z,30.72
2019-04-16T21:11:56.000Z,30.30
2019-04-16T21:14:25.923Z,27.02
2019-04-16T21:20:56.215Z,27.53
2019-04-16T21:23:26.267Z,29.47
2019-04-16T21:25:56.267Z,28.20
2019-04-16T21:28:33.943Z,29.13
2019-04-16T21:31:08.267Z,25.63
2019-04-16T21:33:58.209Z,27.00
2019-04-16T21:36:41.348Z,31.13
2019-04-16T21:39:20.565Z,29.93
2019-04-16T21:41:50.536Z,28.57
2019-04-16T21:44:20.514Z,30.70
2019-04-16T21:46:52.376Z,27.90
2019-04-16T21:49:37.311Z,27.20
2019-04-16T21:52:09.020Z,29.43
2019-04-16T21:54:39.508Z,27.23
2019-04-16T21:57:13.270Z,27.27
2019-04-16T21:59:41.872Z,31.73
2019-04-16T22:02:17.895Z,28.63
2019-04-16T22:04:48.856Z,25.77
2019-04-16T22:07:24.185Z,28.13
2019-04-16T22:09:50.931Z,28.53
2019-04-16T22:12:20.898Z,27.17
2019-04-16T22:14:53.730Z,27.53
2019-04-16T22:17:22.445Z,25.80
2019-04-16T22:20:00.189Z,30.43
2019-04-16T22:22:27.322Z,28.60
2019-04-16T22:24:56.465Z,26.23
2019-04-16T22:27:26.396Z,26.47
2019-04-16T22:29:56.368Z,27.07
2019-04-16T22:32:26.961Z,27.17
2019-04-16T22:34:58.931Z,28.73
2019-04-16T22:37:28.788Z,24.10
2019-04-16T22:40:22.801Z,24.50
2019-04-16T22:43:15.861Z,24.57
2019-04-16T22:45:52.232Z,28.03
2019-04-16T22:48:22.130Z,25.80
2019-04-16T22:50:52.115Z,26.70
2019-04-16T22:53:22.080Z,26.67
2019-04-16T22:55:56.353Z,28.57
2019-04-16T22:58:24.840Z,28.47
2019-04-16T23:01:02.048Z,27.10
2019-04-16T23:03:32.280Z,28.63
2019-04-16T23:06:05.513Z,25.80
2019-04-16T23:08:33.934Z,27.23
2019-04-16T23:11:04.187Z,26.67
2019-04-16T23:13:34.157Z,25.40
2019-04-16T23:16:04.564Z,25.50
2019-04-16T23:18:34.635Z,23.80
2019-04-16T23:21:09.279Z,24.57
2019-04-16T23:23:36.535Z,30.03
2019-04-16T23:26:06.780Z,29.00
2019-04-16T23:28:39.708Z,23.13
2019-04-16T23:31:09.026Z,29.10
2019-04-16T23:33:39.661Z,26.10
2019-04-16T23:36:15.356Z,25.77
2019-04-16T23:38:41.627Z,22.83
2019-04-16T23:41:15.526Z,28.73
2019-04-16T23:43:59.027Z,26.07
2019-04-16T23:46:45.153Z,26.00
2019-04-16T23:49:37.240Z,26.57
2019-04-16T23:52:16.667Z,24.13
2019-04-16T23:54:59.671Z,21.97
2019-04-16T23:57:56.790Z,22.87
